Terminal Aerodrome Forecast
Issued by NWS Raleigh/Durham, NC

Home | Current Version | Previous Version | Text Only | Print | Product List | Glossary On
Versions: 1 2 3 4 5 6 7 8 9 10 11 12 13 14 15 16 17 18 19 20 21 22 23 24 25 26 27 28 29 30 31 32 33 34 35 36 37 38
000
FTUS42 KRAH 282340
TAFFAY
TAF
KFAY 282340Z 0100/0124 02013KT P6SM SCT040 SCT100 BKN250
     FM010700 06006KT P6SM -RA OVC018
     FM011200 06006KT 6SM -RA BR OVC006 WS017/16038KT=

USA.gov is the U.S. government's official web portal to all federal, state and local government web resources and services.